createdAt,value
2019-01-03T11:49:36.736Z,1.20
2019-01-03T12:20:48.744Z,1.60
2019-01-03T12:23:19.327Z,1.50
2019-01-03T12:37:21.325Z,1.50
2019-01-03T12:39:50.693Z,1.60
2019-01-03T12:42:19.317Z,1.70
2019-01-03T12:44:47.948Z,1.70
2019-01-03T12:47:16.538Z,1.80
2019-01-03T12:49:45.142Z,1.80
2019-01-03T12:52:13.763Z,1.90
2019-01-03T12:54:42.359Z,1.90
2019-01-03T12:57:10.954Z,1.90
2019-01-03T12:59:39.636Z,2.00
2019-01-03T13:02:08.286Z,2.10
2019-01-03T13:04:36.890Z,2.20
2019-01-03T13:07:05.860Z,2.40
2019-01-03T13:09:34.431Z,2.40
2019-01-03T13:12:03.045Z,2.50
2019-01-03T13:14:31.619Z,2.60
2019-01-03T13:17:00.225Z,2.70
2019-01-03T13:19:28.706Z,2.70
2019-01-03T13:21:57.283Z,2.80
2019-01-03T13:24:25.821Z,2.90
2019-01-03T13:26:54.401Z,3.00
2019-01-03T13:29:22.980Z,3.00
2019-01-03T13:31:51.574Z,3.10
2019-01-03T13:34:20.138Z,3.10
2019-01-03T13:36:48.715Z,3.20
2019-01-03T13:39:17.572Z,3.30
2019-01-03T13:41:46.198Z,3.40
2019-01-03T13:44:14.763Z,3.40
2019-01-03T13:46:43.366Z,3.40
2019-01-03T13:49:11.917Z,3.30
2019-01-03T13:51:40.497Z,3.30
2019-01-03T13:54:09.077Z,3.30
2019-01-03T13:56:37.650Z,3.30
2019-01-03T13:59:06.230Z,3.30
2019-01-03T14:01:34.778Z,3.20
2019-01-03T14:04:03.363Z,3.20
2019-01-03T14:06:31.982Z,3.10
2019-01-03T14:09:01.438Z,3.10
2019-01-03T14:11:29.997Z,3.10
2019-01-03T14:13:58.573Z,3.10
2019-01-03T14:16:27.131Z,3.00
2019-01-03T14:18:55.705Z,3.10
2019-01-03T14:21:24.242Z,3.10
2019-01-03T14:23:52.818Z,3.00
2019-01-03T14:26:21.366Z,3.00
2019-01-03T14:28:49.937Z,3.10
2019-01-03T14:31:18.506Z,3.00
2019-01-03T14:33:47.078Z,3.00
2019-01-03T14:36:15.626Z,3.00
2019-01-03T14:38:44.216Z,3.00
2019-01-03T14:41:12.765Z,3.00
2019-01-03T14:43:41.345Z,2.90
2019-01-03T14:46:09.885Z,2.90
2019-01-03T14:48:38.473Z,2.90
2019-01-03T14:51:07.029Z,2.90
2019-01-03T14:53:35.608Z,2.90
2019-01-03T14:56:04.149Z,2.90
2019-01-03T14:58:32.653Z,2.90
2019-01-03T15:01:01.121Z,2.80
2019-01-03T15:03:29.696Z,2.80
2019-01-03T15:05:58.251Z,2.80
2019-01-03T15:08:26.825Z,2.80
2019-01-03T15:10:55.362Z,2.80
2019-01-03T15:13:23.930Z,2.80
2019-01-03T15:15:52.470Z,2.70
2019-01-03T15:18:20.988Z,2.70
2019-01-03T15:20:49.526Z,2.70
2019-01-03T15:23:18.027Z,2.70
2019-01-03T15:25:46.576Z,2.60
2019-01-03T15:28:15.147Z,2.60
2019-01-03T15:30:43.756Z,2.60
2019-01-03T15:33:12.422Z,2.60
2019-01-03T15:35:40.979Z,2.50
2019-01-03T15:38:09.573Z,2.50
2019-01-03T15:40:38.127Z,2.50
2019-01-03T15:43:06.713Z,2.50
2019-01-03T15:45:35.264Z,2.50
2019-01-03T15:48:03.830Z,2.50
2019-01-03T15:50:32.406Z,2.40
2019-01-03T15:53:00.975Z,2.40
2019-01-03T15:55:29.556Z,2.40
2019-01-03T15:57:58.110Z,2.40
2019-01-03T16:00:26.688Z,2.40
2019-01-03T16:02:55.249Z,2.40
2019-01-03T16:05:23.876Z,2.30
2019-01-03T16:07:52.378Z,2.30
2019-01-03T16:10:20.966Z,2.30
2019-01-03T16:12:49.536Z,2.20
2019-01-03T16:15:18.107Z,2.20
2019-01-03T16:17:46.688Z,2.20
2019-01-03T16:20:15.289Z,2.20
2019-01-03T16:22:43.838Z,2.20
2019-01-03T16:25:12.443Z,2.20
2019-01-03T16:27:41.088Z,2.30
2019-01-03T16:30:10.325Z,2.20
2019-01-03T16:32:38.881Z,2.20
2019-01-03T16:35:07.607Z,2.20
2019-01-03T16:37:36.194Z,2.20
2019-01-03T16:43:02.726Z,2.20
2019-01-03T16:45:28.694Z,2.20
2019-01-03T16:47:57.253Z,2.20
2019-01-03T16:50:25.852Z,2.10
2019-01-03T16:52:54.422Z,2.20
2019-01-03T16:55:23.012Z,2.10
2019-01-03T16:57:51.596Z,2.20
2019-01-03T17:00:20.205Z,2.20
2019-01-03T17:02:48.773Z,2.20
2019-01-03T17:05:17.723Z,2.10
2019-01-03T17:07:46.295Z,2.10
2019-01-03T17:10:14.934Z,2.10
2019-01-03T17:12:43.534Z,2.10
2019-01-03T17:15:12.201Z,2.20
2019-01-03T17:17:40.858Z,2.10
2019-01-03T17:20:10.476Z,2.10
2019-01-03T17:22:39.073Z,2.10
2019-01-03T17:25:09.870Z,2.10
2019-01-03T17:27:38.537Z,2.10
2019-01-03T17:30:09.377Z,2.20
2019-01-03T17:32:37.998Z,2.10
2019-01-03T17:35:09.011Z,2.10
2019-01-03T17:37:37.603Z,2.10
2019-01-03T17:40:09.137Z,2.10
2019-01-03T17:42:37.727Z,2.10
2019-01-03T17:45:11.277Z,2.00
2019-01-03T17:47:39.959Z,2.10
2019-01-03T17:50:10.802Z,2.10
2019-01-03T17:52:39.483Z,2.00
2019-01-03T17:55:08.628Z,2.00
2019-01-03T17:57:37.290Z,2.10
2019-01-03T18:06:26.529Z,2.10
2019-01-03T18:08:55.161Z,2.00
2019-01-03T18:11:27.408Z,2.00
2019-01-03T18:13:56.020Z,2.00
2019-01-03T18:16:24.605Z,2.00
2019-01-03T18:18:53.229Z,2.10
2019-01-03T18:21:21.850Z,2.10
2019-01-03T18:23:50.458Z,2.10
2019-01-03T18:26:19.038Z,2.10
2019-01-03T18:28:47.654Z,2.10
2019-01-03T18:31:16.260Z,2.10
2019-01-03T18:33:44.923Z,2.10
2019-01-03T18:36:13.448Z,2.10
2019-01-03T18:38:42.027Z,2.10
2019-01-03T18:41:10.641Z,2.10
2019-01-03T18:43:39.239Z,2.10
2019-01-03T18:46:07.806Z,2.10
2019-01-03T18:48:36.392Z,2.10
2019-01-03T18:51:04.993Z,2.10
2019-01-03T18:53:33.587Z,2.10
2019-01-03T18:56:02.243Z,2.10
2019-01-03T18:58:30.946Z,2.10
2019-01-03T19:00:59.534Z,2.10
2019-01-03T19:03:28.138Z,2.10
2019-01-03T19:05:56.722Z,2.10
2019-01-03T19:08:25.354Z,2.10
2019-01-03T19:10:53.889Z,2.10
2019-01-03T19:13:22.465Z,2.10
2019-01-03T19:15:51.215Z,2.10
2019-01-03T19:18:19.796Z,2.10
2019-01-03T19:20:48.417Z,2.20
2019-01-03T19:23:17.008Z,2.10
2019-01-03T19:25:45.684Z,2.10
2019-01-03T19:28:14.328Z,2.20
2019-01-03T19:30:43.016Z,2.20
2019-01-03T19:33:11.661Z,2.20
2019-01-03T19:35:40.353Z,2.20
2019-01-03T19:38:08.932Z,2.20
2019-01-03T19:40:37.594Z,2.20
2019-01-03T19:43:06.305Z,2.20
2019-01-03T19:45:34.923Z,2.20
2019-01-03T19:48:03.506Z,2.20
2019-01-03T19:50:32.169Z,2.20
2019-01-03T19:53:00.719Z,2.20
2019-01-03T19:55:29.303Z,2.20
2019-01-03T19:57:57.969Z,2.20
2019-01-03T20:00:26.635Z,2.20
2019-01-03T20:02:55.282Z,2.20
2019-01-03T20:05:23.878Z,2.20
2019-01-03T20:07:52.447Z,2.20
2019-01-03T20:10:21.046Z,2.20
2019-01-03T20:12:49.645Z,2.20
2019-01-03T20:15:18.294Z,2.30
2019-01-03T20:17:46.939Z,2.30
2019-01-03T20:20:15.498Z,2.30
2019-01-03T20:22:44.171Z,2.30
2019-01-03T20:25:12.842Z,2.30
2019-01-03T20:27:41.407Z,2.30
2019-01-03T20:30:11.032Z,2.30
2019-01-03T20:32:39.626Z,2.30
2019-01-03T20:35:08.552Z,2.30
2019-01-03T20:37:37.139Z,2.30
2019-01-03T20:40:08.153Z,2.30
2019-01-03T20:42:36.751Z,2.30
2019-01-03T20:45:08.694Z,2.20
2019-01-03T20:47:37.378Z,2.20
2019-01-03T20:50:08.789Z,2.20
2019-01-03T20:52:37.397Z,2.20
2019-01-03T20:55:07.627Z,2.10
2019-01-03T20:57:36.356Z,2.20
2019-01-03T21:00:08.035Z,2.20
2019-01-03T21:02:36.619Z,2.20
2019-01-03T21:05:05.719Z,2.20
2019-01-03T21:07:34.316Z,2.20
2019-01-03T21:10:02.962Z,2.20
2019-01-03T21:12:31.615Z,2.10
2019-01-03T21:15:00.228Z,2.10
2019-01-03T21:17:28.791Z,2.10
2019-01-03T21:19:57.357Z,2.10
2019-01-03T21:22:26.240Z,2.10
2019-01-03T21:24:54.846Z,2.10
2019-01-03T21:27:23.519Z,2.10
2019-01-03T21:29:52.089Z,2.10
2019-01-03T21:32:20.743Z,2.10
2019-01-03T21:34:49.385Z,2.10
2019-01-03T21:37:19.430Z,2.20
2019-01-03T21:39:48.006Z,2.20
2019-01-03T21:42:16.598Z,2.20
2019-01-03T21:44:45.153Z,2.20
2019-01-03T21:47:13.735Z,2.20
2019-01-03T21:49:42.286Z,2.20
2019-01-03T21:52:10.860Z,2.10
2019-01-03T21:54:39.463Z,2.10
2019-01-03T21:57:08.077Z,2.10
2019-01-03T21:59:36.688Z,2.10
2019-01-03T22:02:05.273Z,2.10
2019-01-03T22:04:33.853Z,2.20
2019-01-03T22:07:02.419Z,2.20
2019-01-03T22:09:31.015Z,2.20
2019-01-03T22:11:59.606Z,2.10
2019-01-03T22:14:28.325Z,2.10
2019-01-03T22:16:57.034Z,2.10
2019-01-03T22:19:25.626Z,2.10
2019-01-03T22:21:54.171Z,2.10
2019-01-03T22:24:22.795Z,2.10
2019-01-03T22:26:51.376Z,2.10
2019-01-03T22:29:19.957Z,2.10
2019-01-03T22:31:48.519Z,2.10
2019-01-03T22:34:17.191Z,2.10
2019-01-03T22:36:45.752Z,2.00
2019-01-03T22:39:14.469Z,2.00
2019-01-03T22:41:43.133Z,2.00
2019-01-03T22:44:11.766Z,2.00
2019-01-03T22:46:40.377Z,2.00
2019-01-03T22:49:08.973Z,2.00
2019-01-03T22:51:37.544Z,2.00
2019-01-03T22:54:06.149Z,2.00
2019-01-03T22:56:34.762Z,2.00
2019-01-03T22:59:03.364Z,2.00
2019-01-03T23:01:32.082Z,1.90
2019-01-03T23:04:00.727Z,1.90
2019-01-03T23:06:29.512Z,1.80
2019-01-03T23:08:58.122Z,1.80
2019-01-03T23:11:26.783Z,1.80
2019-01-03T23:13:55.447Z,1.70
2019-01-03T23:16:24.009Z,1.60
2019-01-03T23:18:52.629Z,1.70
2019-01-03T23:21:21.249Z,1.70
2019-01-03T23:23:49.838Z,1.80
2019-01-03T23:26:18.491Z,1.80
2019-01-03T23:28:47.183Z,1.80
2019-01-03T23:31:15.802Z,1.90
2019-01-03T23:33:44.395Z,1.90
2019-01-03T23:36:12.994Z,1.80
2019-01-03T23:38:41.557Z,1.80
2019-01-03T23:41:10.156Z,1.80
2019-01-03T23:43:38.797Z,1.80
2019-01-03T23:46:07.452Z,1.80
2019-01-03T23:48:36.385Z,1.80
2019-01-03T23:51:05.062Z,1.80
2019-01-03T23:53:34.026Z,1.80
2019-01-03T23:56:02.645Z,1.70
2019-01-03T23:58:31.323Z,1.70
